Terminal Aerodrome Forecast
Issued by NWS Mt. Holly, NJ

Home | Current Version | Previous Version | Text Only | Print | Product List | Glossary On
Versions: 1 2 3 4 5 6 7 8 9 10 11 12 13 14 15 16 17
000
FTUS41 KPHI 231400 AAA
TAFTTN
TAF AMD
KTTN 231437Z 2315/2412 32018G32KT P6SM BKN040
      TEMPO 2320/2324 SCT050
     FM240000 34015G25KT P6SM SKC
     FM240700 32015KT P6SM SKC=

USA.gov is the U.S. government's official web portal to all federal, state and local government web resources and services.